createdAt,value
2019-01-28T00:02:23.193Z,4.33
2019-01-28T00:04:55.025Z,4.35
2019-01-28T00:07:27.942Z,4.41
2019-01-28T00:09:59.751Z,4.42
2019-01-28T00:12:31.585Z,4.46
2019-01-28T00:15:03.422Z,4.46
2019-01-28T00:17:36.876Z,4.48
2019-01-28T00:20:09.114Z,4.51
2019-01-28T00:22:40.949Z,4.45
2019-01-28T00:25:12.741Z,4.55
2019-01-28T00:27:44.564Z,4.47
2019-01-28T00:30:16.588Z,4.46
2019-01-28T00:32:48.421Z,4.57
2019-01-28T00:35:20.275Z,4.63
2019-01-28T00:37:52.102Z,4.57
2019-01-28T00:40:23.918Z,4.73
2019-01-28T00:42:55.724Z,4.52
2019-01-28T00:45:27.562Z,4.33
2019-01-28T00:47:59.363Z,4.33
2019-01-28T00:50:31.225Z,4.26
2019-01-28T00:53:03.421Z,4.14
2019-01-28T00:55:35.264Z,4.16
2019-01-28T00:58:07.098Z,4.11
2019-01-28T01:00:40.867Z,4.18
2019-01-28T01:03:12.677Z,4.21
2019-01-28T01:05:44.507Z,4.21
2019-01-28T01:08:16.328Z,4.26
2019-01-28T01:10:48.158Z,4.14
2019-01-28T01:13:19.953Z,4.15
2019-01-28T01:15:53.317Z,4.15
2019-01-28T01:18:25.125Z,4.13
2019-01-28T01:20:56.938Z,4.18
2019-01-28T01:23:28.768Z,4.19
2019-01-28T01:26:03.588Z,4.22
2019-01-28T01:28:35.391Z,4.16
2019-01-28T01:31:09.542Z,4.20
2019-01-28T01:33:43.677Z,4.20
2019-01-28T01:36:15.480Z,4.18
2019-01-28T01:38:47.307Z,4.12
2019-01-28T01:41:19.118Z,3.96
2019-01-28T01:43:50.958Z,3.94
2019-01-28T01:46:22.770Z,3.84
2019-01-28T01:48:54.609Z,3.81
2019-01-28T01:51:26.404Z,3.77
2019-01-28T01:53:58.220Z,3.60
2019-01-28T01:56:30.037Z,3.56
2019-01-28T01:59:01.870Z,3.50
2019-01-28T02:01:33.666Z,3.47
2019-01-28T02:04:05.621Z,3.40
2019-01-28T02:06:42.060Z,3.34
2019-01-28T02:09:13.889Z,3.35
2019-01-28T02:11:45.682Z,3.35
2019-01-28T02:14:18.290Z,3.42
2019-01-28T02:16:50.127Z,3.52
2019-01-28T02:19:21.922Z,3.60
2019-01-28T02:21:53.743Z,3.69
2019-01-28T02:24:25.735Z,3.75
2019-01-28T02:26:57.657Z,3.83
2019-01-28T02:29:29.474Z,3.91
2019-01-28T02:32:01.287Z,4.00
2019-01-28T02:34:33.184Z,4.08
2019-01-28T02:37:04.994Z,4.15
2019-01-28T02:39:36.858Z,4.21
2019-01-28T02:42:08.688Z,4.26
2019-01-28T02:44:41.573Z,4.29
2019-01-28T02:47:13.803Z,4.31
2019-01-28T02:49:47.154Z,4.33
2019-01-28T02:52:19.000Z,4.33
2019-01-28T02:54:50.789Z,4.33
2019-01-28T02:57:22.704Z,4.31
2019-01-28T02:59:54.509Z,4.28
2019-01-28T03:02:26.342Z,4.26
2019-01-28T03:05:00.606Z,4.24
2019-01-28T03:07:32.407Z,4.26
2019-01-28T03:10:04.689Z,4.26
2019-01-28T03:12:36.512Z,4.22
2019-01-28T03:15:10.286Z,4.21
2019-01-28T03:17:42.217Z,4.27
2019-01-28T03:20:14.883Z,4.27
2019-01-28T03:22:46.742Z,4.23
2019-01-28T03:25:24.193Z,4.20
2019-01-28T03:27:55.949Z,4.18
2019-01-28T03:30:27.784Z,4.17
2019-01-28T03:32:59.581Z,4.16
2019-01-28T03:35:31.403Z,4.19
2019-01-28T03:38:03.212Z,4.22
2019-01-28T03:40:35.041Z,4.21
2019-01-28T03:43:06.840Z,4.23
2019-01-28T03:45:38.665Z,4.24
2019-01-28T03:48:10.470Z,4.20
2019-01-28T03:50:42.359Z,4.20
2019-01-28T03:53:14.621Z,4.15
2019-01-28T03:55:46.458Z,4.08
2019-01-28T03:58:20.636Z,3.98
2019-01-28T04:00:52.432Z,3.94
2019-01-28T04:03:25.824Z,3.98
2019-01-28T04:05:57.643Z,4.03
2019-01-28T04:08:32.287Z,4.08
2019-01-28T04:11:04.174Z,4.09
2019-01-28T04:13:36.082Z,4.14
2019-01-28T04:16:07.876Z,4.18
2019-01-28T04:18:39.698Z,4.23
2019-01-28T04:21:11.491Z,4.28
2019-01-28T04:23:45.431Z,4.33
2019-01-28T04:26:16.993Z,4.37
2019-01-28T04:28:48.830Z,4.39
2019-01-28T04:31:20.633Z,4.44
2019-01-28T04:33:52.458Z,4.45
2019-01-28T04:36:24.260Z,4.50
2019-01-28T04:38:56.248Z,4.45
2019-01-28T04:41:28.057Z,4.44
2019-01-28T04:43:59.878Z,4.41
2019-01-28T04:46:31.683Z,4.47
2019-01-28T04:49:03.496Z,4.45
2019-01-28T04:51:35.329Z,4.43
2019-01-28T04:54:07.259Z,4.38
2019-01-28T04:56:41.622Z,4.24
2019-01-28T04:59:13.455Z,4.22
2019-01-28T05:01:45.270Z,4.17
2019-01-28T05:04:17.097Z,4.09
2019-01-28T05:06:48.916Z,3.96
2019-01-28T05:09:20.731Z,3.95
2019-01-28T05:11:52.538Z,3.87
2019-01-28T05:14:24.329Z,3.87
2019-01-28T05:16:56.183Z,3.71
2019-01-28T05:19:27.982Z,3.60
2019-01-28T05:21:59.810Z,3.42
2019-01-28T05:24:31.633Z,3.41
2019-01-28T05:27:03.449Z,3.39
2019-01-28T05:29:35.267Z,3.33
2019-01-28T05:32:07.356Z,3.30
2019-01-28T05:34:39.181Z,3.25
2019-01-28T05:37:11.786Z,3.26
2019-01-28T05:39:43.601Z,3.20
2019-01-28T05:42:18.408Z,3.24
2019-01-28T05:44:52.956Z,3.27
2019-01-28T05:47:24.784Z,3.31
2019-01-28T05:49:56.604Z,3.31
2019-01-28T05:52:28.414Z,3.30
2019-01-28T05:55:00.260Z,3.35
2019-01-28T05:57:32.044Z,3.34
2019-01-28T06:00:04.166Z,3.34
2019-01-28T06:02:38.791Z,3.35
2019-01-28T06:05:10.875Z,3.29
2019-01-28T06:07:42.677Z,3.30
2019-01-28T06:10:15.083Z,3.22
2019-01-28T06:12:48.412Z,3.28
2019-01-28T06:15:20.483Z,3.27
2019-01-28T06:17:52.278Z,3.20
2019-01-28T06:20:24.652Z,3.26
2019-01-28T06:22:58.093Z,3.27
2019-01-28T06:25:29.956Z,3.26
2019-01-28T06:28:01.781Z,3.39
2019-01-28T06:30:33.921Z,3.31
2019-01-28T06:33:05.791Z,3.24
2019-01-28T06:35:37.594Z,3.22
2019-01-28T06:38:09.406Z,3.28
2019-01-28T06:40:41.211Z,3.26
2019-01-28T06:43:13.050Z,3.27
2019-01-28T06:45:44.847Z,3.25
2019-01-28T06:48:16.681Z,3.22
2019-01-28T06:50:48.494Z,3.18
2019-01-28T06:53:20.490Z,3.05
2019-01-28T06:55:52.309Z,3.07
2019-01-28T06:58:24.141Z,3.07
2019-01-28T07:00:55.939Z,3.05
2019-01-28T07:03:27.763Z,2.99
2019-01-28T07:05:59.592Z,2.98
2019-01-28T07:08:31.418Z,3.06
2019-01-28T07:11:03.239Z,3.11
2019-01-28T07:13:35.063Z,3.14
2019-01-28T07:16:06.964Z,3.13
2019-01-28T07:18:38.792Z,3.26
2019-01-28T07:21:10.625Z,3.32
2019-01-28T07:23:42.442Z,3.36
2019-01-28T07:26:14.274Z,3.29
2019-01-28T07:28:47.161Z,3.29
2019-01-28T07:31:18.997Z,3.33
2019-01-28T07:33:50.821Z,3.34
2019-01-28T07:36:22.806Z,3.35
2019-01-28T07:38:54.639Z,3.40
2019-01-28T07:41:29.430Z,3.29
2019-01-28T07:44:02.302Z,3.24
2019-01-28T07:46:34.111Z,3.26
2019-01-28T07:49:05.951Z,3.25
2019-01-28T07:51:41.050Z,3.26
2019-01-28T07:54:12.885Z,3.30
2019-01-28T07:56:44.758Z,3.30
2019-01-28T07:59:16.671Z,3.31
2019-01-28T08:01:48.429Z,3.33
2019-01-28T08:04:20.237Z,3.37
2019-01-28T08:06:59.369Z,3.35
2019-01-28T08:09:25.623Z,3.30
2019-01-28T08:11:57.421Z,3.42
2019-01-28T08:14:31.082Z,3.46
2019-01-28T08:17:05.010Z,3.38
2019-01-28T08:19:36.910Z,3.47
2019-01-28T08:22:12.497Z,3.30
2019-01-28T08:24:47.536Z,3.30
2019-01-28T08:27:24.880Z,3.32
2019-01-28T08:30:04.123Z,3.29
2019-01-28T08:32:37.126Z,3.30
2019-01-28T08:35:09.570Z,3.35
2019-01-28T08:37:43.052Z,3.36
2019-01-28T08:40:15.348Z,3.30
2019-01-28T08:42:50.260Z,3.34
2019-01-28T08:45:20.729Z,3.36
2019-01-28T08:47:55.058Z,3.38
2019-01-28T08:50:30.007Z,3.43
2019-01-28T08:53:04.966Z,3.42
2019-01-28T08:55:39.847Z,3.44
2019-01-28T08:58:15.055Z,3.55
2019-01-28T09:00:46.881Z,3.52
2019-01-28T09:03:18.781Z,3.44
2019-01-28T09:05:50.668Z,3.41
2019-01-28T09:08:24.081Z,3.45
2019-01-28T09:11:00.609Z,3.50
2019-01-28T09:13:32.475Z,3.57
2019-01-28T09:16:08.285Z,3.55
2019-01-28T09:18:40.200Z,3.56
2019-01-28T09:21:12.018Z,3.52
2019-01-28T09:23:43.854Z,3.47
2019-01-28T09:26:17.163Z,3.40
2019-01-28T09:28:50.266Z,3.45
2019-01-28T09:31:22.214Z,3.64
2019-01-28T09:33:56.406Z,3.60
2019-01-28T09:36:30.577Z,3.63
2019-01-28T09:39:04.057Z,3.56
2019-01-28T09:41:36.941Z,3.54
2019-01-28T09:44:08.962Z,3.55
2019-01-28T09:46:42.445Z,3.59
2019-01-28T09:49:16.092Z,3.65
2019-01-28T09:51:49.423Z,3.66
2019-01-28T09:54:21.277Z,3.85
2019-01-28T09:56:55.843Z,3.81
2019-01-28T09:59:35.226Z,3.90
2019-01-28T10:02:09.053Z,3.86
2019-01-28T10:04:42.198Z,3.99
2019-01-28T10:07:14.046Z,4.01
2019-01-28T10:09:45.854Z,4.06
2019-01-28T10:12:17.897Z,4.07
2019-01-28T10:14:53.474Z,4.07
2019-01-28T10:17:25.269Z,4.08
2019-01-28T10:19:57.083Z,4.01
2019-01-28T10:22:28.996Z,3.94
2019-01-28T10:25:02.791Z,4.05
2019-01-28T10:27:41.672Z,4.00
2019-01-28T10:30:17.654Z,3.96
2019-01-28T10:32:49.497Z,4.02
2019-01-28T10:35:23.872Z,4.12
2019-01-28T10:38:01.978Z,4.14
2019-01-28T10:40:38.436Z,4.14
2019-01-28T10:43:11.123Z,4.15
2019-01-28T10:45:43.929Z,4.11
2019-01-28T10:48:15.748Z,4.20
2019-01-28T10:50:47.743Z,4.16
2019-01-28T10:53:19.639Z,4.06
2019-01-28T10:55:52.606Z,3.94
2019-01-28T10:58:24.416Z,3.76
2019-01-28T11:00:56.346Z,3.70
2019-01-28T11:03:29.821Z,3.62
2019-01-28T11:06:03.767Z,3.63
2019-01-28T11:08:35.605Z,3.65
2019-01-28T11:11:42.468Z,3.66
2019-01-28T11:14:14.461Z,3.75
2019-01-28T11:16:49.382Z,3.70
2019-01-28T11:19:21.399Z,3.68
2019-01-28T11:21:53.243Z,3.80
2019-01-28T11:24:30.079Z,3.85
2019-01-28T11:27:03.038Z,3.89
2019-01-28T11:29:39.274Z,3.87
2019-01-28T11:32:11.079Z,3.85
2019-01-28T11:34:50.763Z,3.90
2019-01-28T11:37:22.672Z,3.86
2019-01-28T11:39:57.635Z,3.87
2019-01-28T11:42:31.409Z,3.87
2019-01-28T11:45:24.867Z,3.80
2019-01-28T11:47:59.133Z,3.72
2019-01-28T11:50:31.013Z,3.72
2019-01-28T11:53:02.877Z,3.85
2019-01-28T11:55:34.682Z,3.88
2019-01-28T11:58:06.958Z,3.89
2019-01-28T12:01:01.084Z,3.78
2019-01-28T12:03:33.025Z,3.77
2019-01-28T12:06:06.419Z,3.66
2019-01-28T12:24:28.077Z,3.53
2019-01-28T12:27:04.404Z,3.53
2019-01-28T12:29:38.648Z,3.63
2019-01-28T12:32:12.557Z,3.58
2019-01-28T12:34:44.424Z,3.60
2019-01-28T12:37:17.830Z,3.60
2019-01-28T12:43:48.172Z,3.63
2019-01-28T12:46:30.974Z,3.67
2019-01-28T12:51:58.802Z,3.57
2019-01-28T12:55:03.366Z,3.51
2019-01-28T12:57:41.135Z,3.44
2019-01-28T13:00:30.015Z,3.32
2019-01-28T13:04:05.879Z,3.32
2019-01-28T13:06:40.579Z,3.39
2019-01-28T13:09:33.593Z,3.45
2019-01-28T13:14:57.785Z,3.43
2019-01-28T13:17:41.222Z,3.47
2019-01-28T13:20:21.452Z,3.49
2019-01-28T13:23:04.918Z,3.48
2019-01-28T13:25:39.882Z,3.59
2019-01-28T13:28:19.772Z,3.46
2019-01-28T13:30:57.151Z,3.52
2019-01-28T13:33:31.318Z,3.63
2019-01-28T13:39:05.015Z,3.59
2019-01-28T13:41:52.892Z,3.59
2019-01-28T13:44:46.793Z,3.70
2019-01-28T13:48:12.825Z,3.61
2019-01-28T13:50:25.041Z,3.56
2019-01-28T14:00:27.445Z,3.58
2019-01-28T14:03:03.846Z,3.60
2019-01-28T14:05:38.799Z,3.64
2019-01-28T14:08:13.590Z,3.60
2019-01-28T14:10:53.989Z,3.60
2019-01-28T14:13:25.816Z,3.60
2019-01-28T14:15:57.739Z,3.63
2019-01-28T14:18:29.567Z,3.71
2019-01-28T14:21:05.576Z,3.76
2019-01-28T14:23:37.396Z,3.74
2019-01-28T14:26:09.237Z,3.77
2019-01-28T14:28:41.130Z,3.79
2019-01-28T14:31:14.137Z,3.75
2019-01-28T14:33:45.994Z,3.82
2019-01-28T14:36:17.850Z,3.88
2019-01-28T14:38:49.672Z,3.88
2019-01-28T14:41:21.553Z,3.89
2019-01-28T14:43:54.359Z,3.84
2019-01-28T14:46:26.240Z,3.87
2019-01-28T14:48:58.286Z,3.83
2019-01-28T14:51:30.815Z,3.88
2019-01-28T14:54:02.670Z,3.91
2019-01-28T14:56:34.705Z,3.92
2019-01-28T14:59:07.095Z,3.98
2019-01-28T15:01:38.925Z,3.98
2019-01-28T15:04:12.850Z,3.95
2019-01-28T15:06:44.714Z,4.01
2019-01-28T15:09:16.660Z,4.03
2019-01-28T15:11:48.596Z,3.98
2019-01-28T15:14:21.485Z,3.82
2019-01-28T15:16:53.324Z,3.66
2019-01-28T15:19:25.238Z,3.78
2019-01-28T15:21:57.097Z,3.79
2019-01-28T15:24:28.945Z,3.78
2019-01-28T15:27:00.792Z,3.71
2019-01-28T15:29:32.715Z,3.68
2019-01-28T15:32:04.605Z,3.78
2019-01-28T15:34:36.491Z,3.69
2019-01-28T15:37:08.404Z,3.66
2019-01-28T15:39:40.255Z,3.73
2019-01-28T15:42:14.600Z,3.70
2019-01-28T15:44:46.438Z,3.63
2019-01-28T15:47:18.328Z,3.65
2019-01-28T15:49:50.284Z,3.72
2019-01-28T15:52:22.145Z,3.69
2019-01-28T15:54:53.994Z,3.73
2019-01-28T15:57:25.888Z,3.71
2019-01-28T15:59:57.809Z,3.73
2019-01-28T16:02:29.698Z,3.79
2019-01-28T16:05:03.387Z,3.74
2019-01-28T16:07:38.191Z,3.81
2019-01-28T16:10:18.390Z,3.77
2019-01-28T16:12:52.797Z,3.74
2019-01-28T16:15:29.078Z,3.82
2019-01-28T16:18:00.976Z,3.76
2019-01-28T16:20:35.434Z,3.76
2019-01-28T16:23:10.874Z,3.76
2019-01-28T16:25:42.738Z,3.71
2019-01-28T16:28:14.630Z,3.63
2019-01-28T16:30:46.536Z,3.69
2019-01-28T16:33:20.010Z,3.70
2019-01-28T16:35:51.953Z,3.63
2019-01-28T16:38:23.860Z,3.64
2019-01-28T16:40:55.724Z,3.64
2019-01-28T16:43:28.809Z,3.64
2019-01-28T16:47:13.375Z,3.60
2019-01-28T16:49:48.631Z,3.65
2019-01-28T16:52:20.630Z,3.56
2019-01-28T16:54:53.566Z,3.58
2019-01-28T16:57:26.996Z,3.51
2019-01-28T16:59:58.879Z,3.55
2019-01-28T17:02:30.695Z,3.56
2019-01-28T17:05:03.660Z,3.65
2019-01-28T17:07:38.566Z,3.59
2019-01-28T17:10:11.346Z,3.61
2019-01-28T17:12:43.175Z,3.54
2019-01-28T17:15:16.458Z,3.50
2019-01-28T17:17:48.334Z,3.51
2019-01-28T17:20:25.837Z,3.54
2019-01-28T17:22:57.993Z,3.56
2019-01-28T17:25:36.706Z,3.58
2019-01-28T17:28:10.837Z,3.47
2019-01-28T17:30:45.760Z,3.43
2019-01-28T17:33:18.540Z,3.45
2019-01-28T17:35:50.272Z,3.48
2019-01-28T17:38:22.093Z,3.53
2019-01-28T17:40:53.942Z,3.48
2019-01-28T17:43:25.906Z,3.47
2019-01-28T17:45:59.816Z,3.45
2019-01-28T17:48:33.188Z,3.40
2019-01-28T17:51:08.083Z,3.37
2019-01-28T17:53:40.925Z,3.48
2019-01-28T17:56:12.768Z,3.42
2019-01-28T17:58:44.666Z,3.43
2019-01-28T18:01:16.686Z,3.41
2019-01-28T18:03:48.553Z,3.38
2019-01-28T18:06:20.404Z,3.43
2019-01-28T18:08:54.754Z,3.43
2019-01-28T18:11:26.709Z,3.45
2019-01-28T18:14:01.609Z,3.50
2019-01-28T18:16:37.649Z,3.44
2019-01-28T18:19:09.565Z,3.39
2019-01-28T18:21:41.440Z,3.44
2019-01-28T18:24:13.339Z,3.40
2019-01-28T18:26:51.347Z,3.43
2019-01-28T18:29:26.293Z,3.39
2019-01-28T18:32:02.280Z,3.35
2019-01-28T18:34:35.458Z,3.34
2019-01-28T18:37:10.369Z,3.39
2019-01-28T18:39:44.689Z,3.42
2019-01-28T18:42:27.116Z,3.46
2019-01-28T18:45:03.301Z,3.39
2019-01-28T18:47:35.204Z,3.33
2019-01-28T18:50:17.083Z,3.37
2019-01-28T18:52:51.870Z,3.38
2019-01-28T18:55:25.656Z,3.43
2019-01-28T18:57:58.236Z,3.42
2019-01-28T19:00:33.286Z,3.38
2019-01-28T19:03:13.232Z,3.45
2019-01-28T19:06:17.921Z,3.45
2019-01-28T19:09:18.880Z,3.44
2019-01-28T19:12:05.077Z,3.44
2019-01-28T19:14:57.926Z,3.40
2019-01-28T19:17:58.331Z,3.41
2019-01-28T19:20:53.953Z,3.41
2019-01-28T19:23:26.219Z,3.40
2019-01-28T19:25:58.101Z,3.50
2019-01-28T19:28:35.420Z,3.43
2019-01-28T19:31:16.409Z,3.51
2019-01-28T19:33:58.373Z,3.48
2019-01-28T19:36:24.129Z,3.50
2019-01-28T19:38:56.014Z,3.47
2019-01-28T19:41:31.046Z,3.46
2019-01-28T19:44:08.311Z,3.49
2019-01-28T19:46:41.828Z,3.51
2019-01-28T19:49:13.753Z,3.54
2019-01-28T19:51:45.791Z,3.57
2019-01-28T19:54:23.901Z,3.63
2019-01-28T19:56:55.926Z,3.60
2019-01-28T19:59:29.017Z,3.59
2019-01-28T20:02:07.697Z,3.60
2019-01-28T20:04:50.178Z,3.62
2019-01-28T20:07:37.207Z,3.64
2019-01-28T20:10:09.646Z,3.66
2019-01-28T20:12:43.218Z,3.68
2019-01-28T20:15:20.484Z,3.69
2019-01-28T20:17:52.474Z,3.75
2019-01-28T20:20:24.339Z,3.77
2019-01-28T20:22:59.142Z,3.78
2019-01-28T20:25:35.625Z,3.81
2019-01-28T20:28:07.704Z,3.86
2019-01-28T20:30:41.907Z,3.82
2019-01-28T20:33:13.823Z,3.81
2019-01-28T20:35:48.748Z,3.82
2019-01-28T20:38:24.246Z,3.83
2019-01-28T20:40:56.131Z,3.85
2019-01-28T20:43:29.594Z,3.81
2019-01-28T20:46:04.771Z,3.79
2019-01-28T20:48:36.807Z,3.79
2019-01-28T20:51:13.864Z,3.77
2019-01-28T20:53:45.767Z,3.72
2019-01-28T20:56:19.729Z,3.65
2019-01-28T20:58:51.567Z,3.60
2019-01-28T21:01:26.036Z,3.64
2019-01-28T21:03:57.895Z,3.58
2019-01-28T21:06:31.415Z,3.66
2019-01-28T21:09:04.842Z,3.68
2019-01-28T21:11:37.358Z,3.64
2019-01-28T21:14:09.219Z,3.66
2019-01-28T21:16:45.841Z,3.72
2019-01-28T21:19:17.733Z,3.64
2019-01-28T21:21:49.623Z,3.63
2019-01-28T21:24:21.900Z,3.63
2019-01-28T21:26:53.785Z,3.71
2019-01-28T21:29:28.944Z,3.66
2019-01-28T21:32:04.947Z,3.71
2019-01-28T21:34:41.782Z,3.73
2019-01-28T21:37:29.927Z,3.72
2019-01-28T21:40:04.559Z,3.78
2019-01-28T21:42:39.472Z,3.82
2019-01-28T21:45:15.893Z,3.91
2019-01-28T21:47:56.820Z,3.88
2019-01-28T21:50:31.202Z,3.86
2019-01-28T21:53:07.211Z,3.86
2019-01-28T21:55:41.814Z,3.89
2019-01-28T21:58:13.659Z,3.87
2019-01-28T22:00:45.604Z,3.81
2019-01-28T22:03:21.298Z,3.79
2019-01-28T22:05:52.243Z,3.74
2019-01-28T22:08:26.004Z,3.73
2019-01-28T22:11:00.775Z,3.73
2019-01-28T22:13:32.609Z,3.77
2019-01-28T22:16:04.543Z,3.71
2019-01-28T22:18:36.379Z,3.72
2019-01-28T22:21:15.066Z,3.71
2019-01-28T22:23:46.645Z,3.74
2019-01-28T22:26:21.411Z,3.75
2019-01-28T22:28:55.730Z,3.79
2019-01-28T22:31:30.513Z,3.74
2019-01-28T22:34:02.558Z,3.75
2019-01-28T22:36:40.828Z,3.71
2019-01-28T22:39:15.613Z,3.74
2019-01-28T22:41:47.576Z,3.73
2019-01-28T22:44:20.717Z,3.78
2019-01-28T22:46:55.019Z,3.79
2019-01-28T22:49:28.938Z,3.77
2019-01-28T22:52:07.776Z,3.73
2019-01-28T22:54:38.040Z,3.71
2019-01-28T22:57:11.252Z,3.69
2019-01-28T22:59:45.146Z,3.62
2019-01-28T23:02:18.211Z,3.57
2019-01-28T23:04:50.052Z,3.56
2019-01-28T23:07:21.912Z,3.53
2019-01-28T23:09:56.817Z,3.54
2019-01-28T23:12:29.985Z,3.52
2019-01-28T23:15:16.677Z,3.44
2019-01-28T23:17:50.578Z,3.46
2019-01-28T23:20:22.402Z,3.46
2019-01-28T23:22:54.278Z,3.44
2019-01-28T23:25:30.316Z,3.50
2019-01-28T23:28:03.456Z,3.53
2019-01-28T23:30:38.209Z,3.54
2019-01-28T23:33:10.508Z,3.57
2019-01-28T23:35:45.366Z,3.62
2019-01-28T23:38:17.204Z,3.67
2019-01-28T23:40:52.095Z,3.70
2019-01-28T23:43:23.941Z,3.73
2019-01-28T23:45:55.802Z,3.75
2019-01-28T23:48:32.137Z,3.78
2019-01-28T23:51:06.988Z,3.80
2019-01-28T23:53:41.777Z,3.82
2019-01-28T23:56:13.663Z,3.80
2019-01-28T23:58:49.876Z,3.83
